sensor_id;sensor_type;location;lat;lon;timestamp;temperature;humidity
56725;DHT22;42608;52.776;6.968;2022-08-03T00:01:02;21.20;99.90
56725;DHT22;42608;52.776;6.968;2022-08-03T00:03:27;21.20;99.90
56725;DHT22;42608;52.776;6.968;2022-08-03T00:05:53;21.20;99.90
56725;DHT22;42608;52.776;6.968;2022-08-03T00:08:18;21.10;99.90
56725;DHT22;42608;52.776;6.968;2022-08-03T00:10:44;21.10;99.90
56725;DHT22;42608;52.776;6.968;2022-08-03T00:13:09;21.10;99.90
56725;DHT22;42608;52.776;6.968;2022-08-03T00:15:40;21.10;99.90
56725;DHT22;42608;52.776;6.968;2022-08-03T00:18:06;21.10;99.90
56725;DHT22;42608;52.776;6.968;2022-08-03T00:20:31;21.00;99.90
56725;DHT22;42608;52.776;6.968;2022-08-03T00:22:57;21.00;99.90
56725;DHT22;42608;52.776;6.968;2022-08-03T00:25:22;20.90;99.90
56725;DHT22;42608;52.776;6.968;2022-08-03T00:27:48;20.90;99.90
56725;DHT22;42608;52.776;6.968;2022-08-03T00:30:13;20.80;99.90
56725;DHT22;42608;52.776;6.968;2022-08-03T00:32:40;20.80;99.90
56725;DHT22;42608;52.776;6.968;2022-08-03T00:35:05;20.70;99.90
56725;DHT22;42608;52.776;6.968;2022-08-03T00:37:31;20.70;99.90
56725;DHT22;42608;52.776;6.968;2022-08-03T00:39:57;20.80;99.90
56725;DHT22;42608;52.776;6.968;2022-08-03T00:42:22;20.70;99.90
56725;DHT22;42608;52.776;6.968;2022-08-03T00:44:48;20.70;99.90
56725;DHT22;42608;52.776;6.968;2022-08-03T00:47:13;20.80;99.90
56725;DHT22;42608;52.776;6.968;2022-08-03T00:49:39;20.70;99.90
56725;DHT22;42608;52.776;6.968;2022-08-03T00:52:05;20.70;99.90
56725;DHT22;42608;52.776;6.968;2022-08-03T00:54:31;20.70;99.90
56725;DHT22;42608;52.776;6.968;2022-08-03T00:56:57;20.70;99.90
56725;DHT22;42608;52.776;6.968;2022-08-03T00:59:23;20.70;99.90
56725;DHT22;42608;52.776;6.968;2022-08-03T01:01:48;20.70;99.90
56725;DHT22;42608;52.776;6.968;2022-08-03T01:04:14;20.60;99.90
56725;DHT22;42608;52.776;6.968;2022-08-03T01:06:42;20.60;99.90
56725;DHT22;42608;52.776;6.968;2022-08-03T01:09:26;20.60;99.90
56725;DHT22;42608;52.776;6.968;2022-08-03T01:11:55;20.60;99.90
56725;DHT22;42608;52.776;6.968;2022-08-03T01:14:37;20.60;99.90
56725;DHT22;42608;52.776;6.968;2022-08-03T01:17:09;20.60;99.90
56725;DHT22;42608;52.776;6.968;2022-08-03T01:32:16;20.40;99.90
56725;DHT22;42608;52.776;6.968;2022-08-03T01:34:44;20.30;99.90
56725;DHT22;42608;52.776;6.968;2022-08-03T01:37:11;20.30;99.90
56725;DHT22;42608;52.776;6.968;2022-08-03T01:39:37;20.30;99.90
56725;DHT22;42608;52.776;6.968;2022-08-03T01:42:05;20.30;99.90
56725;DHT22;42608;52.776;6.968;2022-08-03T01:44:36;20.30;99.90
56725;DHT22;42608;52.776;6.968;2022-08-03T01:47:03;20.20;99.90
56725;DHT22;42608;52.776;6.968;2022-08-03T01:49:29;20.20;99.90
56725;DHT22;42608;52.776;6.968;2022-08-03T01:51:56;20.20;99.90
56725;DHT22;42608;52.776;6.968;2022-08-03T01:54:23;20.20;99.90
56725;DHT22;42608;52.776;6.968;2022-08-03T01:56:50;20.10;99.90
56725;DHT22;42608;52.776;6.968;2022-08-03T01:59:16;20.10;99.90
56725;DHT22;42608;52.776;6.968;2022-08-03T02:01:43;20.10;99.90
56725;DHT22;42608;52.776;6.968;2022-08-03T02:04:09;20.10;99.90
56725;DHT22;42608;52.776;6.968;2022-08-03T02:06:35;20.00;99.90
56725;DHT22;42608;52.776;6.968;2022-08-03T02:09:02;20.00;99.90
56725;DHT22;42608;52.776;6.968;2022-08-03T02:11:29;20.00;99.90
56725;DHT22;42608;52.776;6.968;2022-08-03T02:13:56;20.00;99.90
56725;DHT22;42608;52.776;6.968;2022-08-03T02:16:24;20.00;99.90
56725;DHT22;42608;52.776;6.968;2022-08-03T02:18:50;20.00;99.90
56725;DHT22;42608;52.776;6.968;2022-08-03T02:21:16;20.00;99.90
56725;DHT22;42608;52.776;6.968;2022-08-03T02:23:42;20.00;99.90
56725;DHT22;42608;52.776;6.968;2022-08-03T02:26:08;20.00;99.90
56725;DHT22;42608;52.776;6.968;2022-08-03T02:28:36;20.00;99.90
56725;DHT22;42608;52.776;6.968;2022-08-03T02:31:04;20.00;99.90
56725;DHT22;42608;52.776;6.968;2022-08-03T02:33:31;19.90;99.90
56725;DHT22;42608;52.776;6.968;2022-08-03T02:35:57;19.90;99.90
56725;DHT22;42608;52.776;6.968;2022-08-03T02:38:25;19.90;99.90
56725;DHT22;42608;52.776;6.968;2022-08-03T02:40:51;19.90;99.90
56725;DHT22;42608;52.776;6.968;2022-08-03T02:43:20;19.90;99.90
56725;DHT22;42608;52.776;6.968;2022-08-03T02:45:47;19.80;99.90
56725;DHT22;42608;52.776;6.968;2022-08-03T02:48:16;19.80;99.90
56725;DHT22;42608;52.776;6.968;2022-08-03T02:50:43;19.80;99.90
56725;DHT22;42608;52.776;6.968;2022-08-03T02:53:09;19.80;99.90
56725;DHT22;42608;52.776;6.968;2022-08-03T02:55:35;19.70;99.90
56725;DHT22;42608;52.776;6.968;2022-08-03T02:58:02;19.70;99.90
56725;DHT22;42608;52.776;6.968;2022-08-03T03:00:28;19.70;99.90
56725;DHT22;42608;52.776;6.968;2022-08-03T03:02:58;19.70;99.90
56725;DHT22;42608;52.776;6.968;2022-08-03T03:05:25;19.70;99.90
56725;DHT22;42608;52.776;6.968;2022-08-03T03:07:50;19.60;99.90
56725;DHT22;42608;52.776;6.968;2022-08-03T03:10:16;19.60;99.90
56725;DHT22;42608;52.776;6.968;2022-08-03T03:12:42;19.60;99.90
56725;DHT22;42608;52.776;6.968;2022-08-03T03:15:09;19.60;99.90
56725;DHT22;42608;52.776;6.968;2022-08-03T03:17:35;19.60;99.90
56725;DHT22;42608;52.776;6.968;2022-08-03T03:20:01;19.60;99.90
56725;DHT22;42608;52.776;6.968;2022-08-03T03:22:27;19.60;99.90
56725;DHT22;42608;52.776;6.968;2022-08-03T03:24:53;19.60;99.90
56725;DHT22;42608;52.776;6.968;2022-08-03T03:27:20;19.60;99.90
56725;DHT22;42608;52.776;6.968;2022-08-03T03:29:46;19.60;99.90
56725;DHT22;42608;52.776;6.968;2022-08-03T03:32:12;19.50;99.90
56725;DHT22;42608;52.776;6.968;2022-08-03T03:34:38;19.50;99.90
56725;DHT22;42608;52.776;6.968;2022-08-03T03:37:03;19.50;99.90
56725;DHT22;42608;52.776;6.968;2022-08-03T03:39:30;19.50;99.90
56725;DHT22;42608;52.776;6.968;2022-08-03T03:41:56;19.50;99.90
56725;DHT22;42608;52.776;6.968;2022-08-03T03:44:30;19.50;99.90
56725;DHT22;42608;52.776;6.968;2022-08-03T03:46:58;19.50;99.90
56725;DHT22;42608;52.776;6.968;2022-08-03T03:49:25;19.50;99.90
56725;DHT22;42608;52.776;6.968;2022-08-03T03:51:53;19.50;99.90
56725;DHT22;42608;52.776;6.968;2022-08-03T03:54:19;19.40;99.90
56725;DHT22;42608;52.776;6.968;2022-08-03T03:56:45;19.40;99.90
56725;DHT22;42608;52.776;6.968;2022-08-03T03:59:11;19.40;99.90
56725;DHT22;42608;52.776;6.968;2022-08-03T04:01:37;19.40;99.90
56725;DHT22;42608;52.776;6.968;2022-08-03T04:04:03;19.40;99.90
56725;DHT22;42608;52.776;6.968;2022-08-03T04:06:48;19.40;99.90
56725;DHT22;42608;52.776;6.968;2022-08-03T04:09:34;19.40;99.90
56725;DHT22;42608;52.776;6.968;2022-08-03T04:12:18;19.40;99.90
56725;DHT22;42608;52.776;6.968;2022-08-03T04:14:45;19.40;99.90
56725;DHT22;42608;52.776;6.968;2022-08-03T04:17:13;19.40;99.90
56725;DHT22;42608;52.776;6.968;2022-08-03T04:19:41;19.40;99.90
56725;DHT22;42608;52.776;6.968;2022-08-03T04:22:11;19.40;99.90
56725;DHT22;42608;52.776;6.968;2022-08-03T04:24:40;19.40;99.90
56725;DHT22;42608;52.776;6.968;2022-08-03T04:27:08;19.40;99.90
56725;DHT22;42608;52.776;6.968;2022-08-03T04:29:34;19.40;99.90
56725;DHT22;42608;52.776;6.968;2022-08-03T04:32:01;19.40;99.90
56725;DHT22;42608;52.776;6.968;2022-08-03T04:34:29;19.40;99.90
56725;DHT22;42608;52.776;6.968;2022-08-03T04:36:57;19.30;99.90
56725;DHT22;42608;52.776;6.968;2022-08-03T04:39:23;19.40;99.90
56725;DHT22;42608;52.776;6.968;2022-08-03T04:41:54;19.30;99.90
56725;DHT22;42608;52.776;6.968;2022-08-03T04:44:21;19.30;99.90
56725;DHT22;42608;52.776;6.968;2022-08-03T04:46:47;19.40;99.90
56725;DHT22;42608;52.776;6.968;2022-08-03T04:49:13;19.30;99.90
56725;DHT22;42608;52.776;6.968;2022-08-03T04:51:39;19.30;99.90
56725;DHT22;42608;52.776;6.968;2022-08-03T04:54:05;19.30;99.90
56725;DHT22;42608;52.776;6.968;2022-08-03T04:56:32;19.40;99.90
56725;DHT22;42608;52.776;6.968;2022-08-03T04:58:58;19.30;99.90
56725;DHT22;42608;52.776;6.968;2022-08-03T05:01:24;19.40;99.90
56725;DHT22;42608;52.776;6.968;2022-08-03T05:03:49;19.40;99.90
56725;DHT22;42608;52.776;6.968;2022-08-03T05:06:15;19.40;99.90
56725;DHT22;42608;52.776;6.968;2022-08-03T05:08:41;19.40;99.90
56725;DHT22;42608;52.776;6.968;2022-08-03T05:11:06;19.40;99.90
56725;DHT22;42608;52.776;6.968;2022-08-03T05:13:33;19.50;99.90
56725;DHT22;42608;52.776;6.968;2022-08-03T05:15:58;19.40;99.90
56725;DHT22;42608;52.776;6.968;2022-08-03T05:18:24;19.40;99.90
56725;DHT22;42608;52.776;6.968;2022-08-03T05:20:49;19.50;99.90
56725;DHT22;42608;52.776;6.968;2022-08-03T05:23:15;19.50;99.90
56725;DHT22;42608;52.776;6.968;2022-08-03T05:25:40;19.50;99.90
56725;DHT22;42608;52.776;6.968;2022-08-03T05:28:06;19.60;99.90
56725;DHT22;42608;52.776;6.968;2022-08-03T05:30:32;19.60;99.90
56725;DHT22;42608;52.776;6.968;2022-08-03T05:32:57;19.60;99.90
56725;DHT22;42608;52.776;6.968;2022-08-03T05:35:24;19.60;99.90
56725;DHT22;42608;52.776;6.968;2022-08-03T05:37:50;19.60;99.90
56725;DHT22;42608;52.776;6.968;2022-08-03T05:40:16;19.70;99.90
56725;DHT22;42608;52.776;6.968;2022-08-03T05:42:41;19.70;99.90
56725;DHT22;42608;52.776;6.968;2022-08-03T05:45:07;19.70;99.90
56725;DHT22;42608;52.776;6.968;2022-08-03T05:47:40;19.70;99.90
56725;DHT22;42608;52.776;6.968;2022-08-03T05:50:05;19.70;99.90
56725;DHT22;42608;52.776;6.968;2022-08-03T05:52:31;19.70;99.90
56725;DHT22;42608;52.776;6.968;2022-08-03T05:54:57;19.80;99.90
56725;DHT22;42608;52.776;6.968;2022-08-03T05:57:22;19.80;99.90
56725;DHT22;42608;52.776;6.968;2022-08-03T05:59:48;19.90;99.90
56725;DHT22;42608;52.776;6.968;2022-08-03T06:02:14;19.90;99.90
56725;DHT22;42608;52.776;6.968;2022-08-03T06:04:39;19.90;99.90
56725;DHT22;42608;52.776;6.968;2022-08-03T06:07:05;20.00;99.90
56725;DHT22;42608;52.776;6.968;2022-08-03T06:09:30;20.00;99.90
56725;DHT22;42608;52.776;6.968;2022-08-03T06:11:56;20.10;99.90
56725;DHT22;42608;52.776;6.968;2022-08-03T06:14:21;20.10;99.90
56725;DHT22;42608;52.776;6.968;2022-08-03T06:16:47;20.20;99.90
56725;DHT22;42608;52.776;6.968;2022-08-03T06:19:12;20.30;99.90
56725;DHT22;42608;52.776;6.968;2022-08-03T06:21:38;20.30;99.90
56725;DHT22;42608;52.776;6.968;2022-08-03T06:24:03;20.30;99.90
56725;DHT22;42608;52.776;6.968;2022-08-03T06:26:29;20.40;99.90
56725;DHT22;42608;52.776;6.968;2022-08-03T06:28:55;20.40;99.90
56725;DHT22;42608;52.776;6.968;2022-08-03T06:31:24;20.40;99.90
56725;DHT22;42608;52.776;6.968;2022-08-03T06:33:50;20.50;99.90
56725;DHT22;42608;52.776;6.968;2022-08-03T06:36:16;20.50;99.90
56725;DHT22;42608;52.776;6.968;2022-08-03T06:38:41;20.50;99.90
56725;DHT22;42608;52.776;6.968;2022-08-03T06:41:07;20.60;99.90
56725;DHT22;42608;52.776;6.968;2022-08-03T06:43:32;20.60;99.90
56725;DHT22;42608;52.776;6.968;2022-08-03T06:46:02;20.70;99.90
56725;DHT22;42608;52.776;6.968;2022-08-03T06:48:27;20.70;99.90
56725;DHT22;42608;52.776;6.968;2022-08-03T06:50:53;20.80;99.90
56725;DHT22;42608;52.776;6.968;2022-08-03T06:53:18;20.80;99.90
56725;DHT22;42608;52.776;6.968;2022-08-03T06:55:44;20.90;99.90
56725;DHT22;42608;52.776;6.968;2022-08-03T06:58:09;21.00;99.90
56725;DHT22;42608;52.776;6.968;2022-08-03T07:00:35;21.00;99.90
56725;DHT22;42608;52.776;6.968;2022-08-03T07:03:00;21.00;99.90
56725;DHT22;42608;52.776;6.968;2022-08-03T07:05:26;21.10;99.90
56725;DHT22;42608;52.776;6.968;2022-08-03T07:07:55;21.10;99.90
56725;DHT22;42608;52.776;6.968;2022-08-03T07:10:21;21.20;99.90
56725;DHT22;42608;52.776;6.968;2022-08-03T07:12:46;21.20;99.90
56725;DHT22;42608;52.776;6.968;2022-08-03T07:15:12;21.20;99.90
56725;DHT22;42608;52.776;6.968;2022-08-03T07:17:38;21.30;99.90
56725;DHT22;42608;52.776;6.968;2022-08-03T07:20:04;21.30;99.90
56725;DHT22;42608;52.776;6.968;2022-08-03T07:22:30;21.40;99.90
56725;DHT22;42608;52.776;6.968;2022-08-03T07:24:55;21.40;99.90
56725;DHT22;42608;52.776;6.968;2022-08-03T07:27:21;21.50;99.90
56725;DHT22;42608;52.776;6.968;2022-08-03T07:29:47;21.60;99.90
56725;DHT22;42608;52.776;6.968;2022-08-03T07:32:12;21.70;99.90
56725;DHT22;42608;52.776;6.968;2022-08-03T07:34:38;21.70;99.90
56725;DHT22;42608;52.776;6.968;2022-08-03T07:37:03;21.70;99.90
56725;DHT22;42608;52.776;6.968;2022-08-03T07:39:29;21.70;99.90
56725;DHT22;42608;52.776;6.968;2022-08-03T07:41:54;21.80;99.90
56725;DHT22;42608;52.776;6.968;2022-08-03T07:44:20;21.80;99.90
56725;DHT22;42608;52.776;6.968;2022-08-03T07:46:46;21.80;99.90
56725;DHT22;42608;52.776;6.968;2022-08-03T07:49:11;21.80;99.90
56725;DHT22;42608;52.776;6.968;2022-08-03T07:51:37;21.90;99.90
56725;DHT22;42608;52.776;6.968;2022-08-03T07:54:03;21.90;99.90
56725;DHT22;42608;52.776;6.968;2022-08-03T07:56:29;22.00;99.90
56725;DHT22;42608;52.776;6.968;2022-08-03T07:58:54;22.00;99.90
56725;DHT22;42608;52.776;6.968;2022-08-03T08:01:20;22.10;99.90
56725;DHT22;42608;52.776;6.968;2022-08-03T08:03:46;22.10;99.90
56725;DHT22;42608;52.776;6.968;2022-08-03T08:06:12;22.20;99.90
56725;DHT22;42608;52.776;6.968;2022-08-03T08:08:38;22.30;99.90
56725;DHT22;42608;52.776;6.968;2022-08-03T08:11:04;22.30;99.90
56725;DHT22;42608;52.776;6.968;2022-08-03T08:13:29;22.40;99.90
56725;DHT22;42608;52.776;6.968;2022-08-03T08:15:55;22.40;99.90
56725;DHT22;42608;52.776;6.968;2022-08-03T08:18:21;22.50;99.90
56725;DHT22;42608;52.776;6.968;2022-08-03T08:20:46;22.50;99.90
56725;DHT22;42608;52.776;6.968;2022-08-03T08:23:12;22.60;99.90
56725;DHT22;42608;52.776;6.968;2022-08-03T08:25:37;22.70;99.90
56725;DHT22;42608;52.776;6.968;2022-08-03T08:28:03;22.70;99.90
56725;DHT22;42608;52.776;6.968;2022-08-03T08:30:30;22.70;99.90
56725;DHT22;42608;52.776;6.968;2022-08-03T08:32:56;22.80;99.90
56725;DHT22;42608;52.776;6.968;2022-08-03T08:35:22;22.90;99.90
56725;DHT22;42608;52.776;6.968;2022-08-03T08:37:47;22.90;99.90
56725;DHT22;42608;52.776;6.968;2022-08-03T08:40:13;23.00;99.90
56725;DHT22;42608;52.776;6.968;2022-08-03T08:42:39;23.00;99.90
56725;DHT22;42608;52.776;6.968;2022-08-03T08:45:05;23.00;99.90
56725;DHT22;42608;52.776;6.968;2022-08-03T08:47:33;23.10;99.90
56725;DHT22;42608;52.776;6.968;2022-08-03T08:50:00;23.20;99.90
56725;DHT22;42608;52.776;6.968;2022-08-03T08:52:27;23.20;99.90
56725;DHT22;42608;52.776;6.968;2022-08-03T08:54:55;23.30;99.90
56725;DHT22;42608;52.776;6.968;2022-08-03T08:57:21;23.40;99.90
56725;DHT22;42608;52.776;6.968;2022-08-03T08:59:47;23.40;99.90
56725;DHT22;42608;52.776;6.968;2022-08-03T09:02:13;23.50;99.90
56725;DHT22;42608;52.776;6.968;2022-08-03T09:04:38;23.60;99.90
56725;DHT22;42608;52.776;6.968;2022-08-03T09:07:04;23.60;99.90
56725;DHT22;42608;52.776;6.968;2022-08-03T09:09:30;23.70;99.90
56725;DHT22;42608;52.776;6.968;2022-08-03T09:11:56;23.80;99.90
56725;DHT22;42608;52.776;6.968;2022-08-03T09:14:21;23.80;99.90
56725;DHT22;42608;52.776;6.968;2022-08-03T09:17:00;23.80;99.90
56725;DHT22;42608;52.776;6.968;2022-08-03T09:19:29;23.90;99.90
56725;DHT22;42608;52.776;6.968;2022-08-03T09:24:34;24.00;99.90
56725;DHT22;42608;52.776;6.968;2022-08-03T09:27:00;24.00;99.90
56725;DHT22;42608;52.776;6.968;2022-08-03T09:29:25;24.10;99.90
56725;DHT22;42608;52.776;6.968;2022-08-03T09:32:00;24.10;99.90
56725;DHT22;42608;52.776;6.968;2022-08-03T09:34:26;24.20;99.90
56725;DHT22;42608;52.776;6.968;2022-08-03T09:36:53;24.30;99.90
56725;DHT22;42608;52.776;6.968;2022-08-03T09:39:22;24.30;99.90
56725;DHT22;42608;52.776;6.968;2022-08-03T09:42:04;24.30;99.90
56725;DHT22;42608;52.776;6.968;2022-08-03T09:44:37;24.40;99.90
56725;DHT22;42608;52.776;6.968;2022-08-03T09:47:04;24.40;99.90
56725;DHT22;42608;52.776;6.968;2022-08-03T09:49:30;24.60;99.90
56725;DHT22;42608;52.776;6.968;2022-08-03T09:51:56;24.60;99.90
56725;DHT22;42608;52.776;6.968;2022-08-03T09:54:25;24.70;99.90
56725;DHT22;42608;52.776;6.968;2022-08-03T09:56:51;24.80;99.90
56725;DHT22;42608;52.776;6.968;2022-08-03T09:59:24;24.90;99.90
56725;DHT22;42608;52.776;6.968;2022-08-03T10:01:50;25.00;99.90
56725;DHT22;42608;52.776;6.968;2022-08-03T10:04:16;25.10;99.90
56725;DHT22;42608;52.776;6.968;2022-08-03T10:06:44;25.10;99.90
56725;DHT22;42608;52.776;6.968;2022-08-03T10:09:11;25.20;99.90
56725;DHT22;42608;52.776;6.968;2022-08-03T10:11:38;25.30;99.90
56725;DHT22;42608;52.776;6.968;2022-08-03T10:14:04;25.30;99.90
56725;DHT22;42608;52.776;6.968;2022-08-03T10:16:34;25.40;99.90
56725;DHT22;42608;52.776;6.968;2022-08-03T10:19:00;25.40;99.90
56725;DHT22;42608;52.776;6.968;2022-08-03T10:21:27;25.50;99.90
56725;DHT22;42608;52.776;6.968;2022-08-03T10:23:55;25.50;99.90
56725;DHT22;42608;52.776;6.968;2022-08-03T10:26:21;25.60;99.90
56725;DHT22;42608;52.776;6.968;2022-08-03T10:28:48;25.70;99.90
56725;DHT22;42608;52.776;6.968;2022-08-03T10:31:15;25.80;99.90
56725;DHT22;42608;52.776;6.968;2022-08-03T10:33:43;25.80;99.90
56725;DHT22;42608;52.776;6.968;2022-08-03T10:36:08;25.90;99.90
56725;DHT22;42608;52.776;6.968;2022-08-03T10:38:47;26.00;99.90
56725;DHT22;42608;52.776;6.968;2022-08-03T10:41:20;26.10;99.90
56725;DHT22;42608;52.776;6.968;2022-08-03T10:43:48;26.20;99.90
56725;DHT22;42608;52.776;6.968;2022-08-03T10:46:14;26.20;99.90
56725;DHT22;42608;52.776;6.968;2022-08-03T10:48:40;26.30;99.90
56725;DHT22;42608;52.776;6.968;2022-08-03T10:51:06;26.30;99.90
56725;DHT22;42608;52.776;6.968;2022-08-03T10:53:41;26.40;99.90
56725;DHT22;42608;52.776;6.968;2022-08-03T10:59:11;26.50;99.90
56725;DHT22;42608;52.776;6.968;2022-08-03T11:01:53;26.50;99.90
56725;DHT22;42608;52.776;6.968;2022-08-03T11:04:19;26.60;99.90
56725;DHT22;42608;52.776;6.968;2022-08-03T11:06:45;26.70;99.90
56725;DHT22;42608;52.776;6.968;2022-08-03T11:11:37;26.80;99.90
56725;DHT22;42608;52.776;6.968;2022-08-03T11:14:10;26.90;99.90
56725;DHT22;42608;52.776;6.968;2022-08-03T11:16:37;27.00;99.90
56725;DHT22;42608;52.776;6.968;2022-08-03T11:19:04;27.00;99.00
56725;DHT22;42608;52.776;6.968;2022-08-03T11:35:05;27.40;96.30
56725;DHT22;42608;52.776;6.968;2022-08-03T11:37:31;27.50;96.00
56725;DHT22;42608;52.776;6.968;2022-08-03T11:39:57;27.50;96.00
56725;DHT22;42608;52.776;6.968;2022-08-03T11:47:20;27.80;95.50
56725;DHT22;42608;52.776;6.968;2022-08-03T11:49:46;27.90;93.70
56725;DHT22;42608;52.776;6.968;2022-08-03T11:52:12;27.90;92.70
56725;DHT22;42608;52.776;6.968;2022-08-03T11:54:37;28.00;92.70
56725;DHT22;42608;52.776;6.968;2022-08-03T11:57:03;28.00;91.70
56725;DHT22;42608;52.776;6.968;2022-08-03T11:59:32;28.10;92.50
56725;DHT22;42608;52.776;6.968;2022-08-03T12:02:12;28.20;91.90
56725;DHT22;42608;52.776;6.968;2022-08-03T12:04:53;28.30;91.50
56725;DHT22;42608;52.776;6.968;2022-08-03T12:07:22;28.50;91.10
56725;DHT22;42608;52.776;6.968;2022-08-03T12:12:32;28.50;90.50
56725;DHT22;42608;52.776;6.968;2022-08-03T12:14:58;28.60;90.80
56725;DHT22;42608;52.776;6.968;2022-08-03T12:17:31;28.60;89.40
56725;DHT22;42608;52.776;6.968;2022-08-03T12:19:56;28.70;87.10
56725;DHT22;42608;52.776;6.968;2022-08-03T12:22:32;28.60;84.90
56725;DHT22;42608;52.776;6.968;2022-08-03T12:24:58;28.70;84.10
56725;DHT22;42608;52.776;6.968;2022-08-03T12:27:24;28.80;82.80
56725;DHT22;42608;52.776;6.968;2022-08-03T12:29:50;28.80;81.90
56725;DHT22;42608;52.776;6.968;2022-08-03T12:32:16;28.90;82.00
56725;DHT22;42608;52.776;6.968;2022-08-03T12:34:45;28.90;82.10
56725;DHT22;42608;52.776;6.968;2022-08-03T12:37:11;29.00;82.40
56725;DHT22;42608;52.776;6.968;2022-08-03T12:39:37;29.10;80.90
56725;DHT22;42608;52.776;6.968;2022-08-03T12:42:02;29.20;79.90
56725;DHT22;42608;52.776;6.968;2022-08-03T12:44:29;29.10;77.60
56725;DHT22;42608;52.776;6.968;2022-08-03T12:46:56;29.20;78.50
56725;DHT22;42608;52.776;6.968;2022-08-03T12:49:22;29.20;77.20
56725;DHT22;42608;52.776;6.968;2022-08-03T12:54:19;29.40;77.00
56725;DHT22;42608;52.776;6.968;2022-08-03T12:56:58;29.40;77.60
56725;DHT22;42608;52.776;6.968;2022-08-03T12:59:25;29.50;76.40
56725;DHT22;42608;52.776;6.968;2022-08-03T13:01:51;29.60;77.70
56725;DHT22;42608;52.776;6.968;2022-08-03T13:04:30;29.80;76.70
56725;DHT22;42608;52.776;6.968;2022-08-03T13:06:59;29.90;75.50
56725;DHT22;42608;52.776;6.968;2022-08-03T13:09:25;30.00;73.30
56725;DHT22;42608;52.776;6.968;2022-08-03T13:12:11;30.10;72.40
56725;DHT22;42608;52.776;6.968;2022-08-03T13:14:37;30.20;72.00
56725;DHT22;42608;52.776;6.968;2022-08-03T13:17:03;30.30;71.40
56725;DHT22;42608;52.776;6.968;2022-08-03T13:19:34;30.50;72.10
56725;DHT22;42608;52.776;6.968;2022-08-03T13:22:00;30.60;71.10
56725;DHT22;42608;52.776;6.968;2022-08-03T13:24:27;30.70;70.90
56725;DHT22;42608;52.776;6.968;2022-08-03T13:26:53;30.70;70.50
56725;DHT22;42608;52.776;6.968;2022-08-03T13:29:18;30.70;68.60
56725;DHT22;42608;52.776;6.968;2022-08-03T13:31:44;30.70;69.00
56725;DHT22;42608;52.776;6.968;2022-08-03T13:34:10;30.80;69.40
56725;DHT22;42608;52.776;6.968;2022-08-03T13:36:35;30.90;67.80
56725;DHT22;42608;52.776;6.968;2022-08-03T13:39:01;31.10;67.80
56725;DHT22;42608;52.776;6.968;2022-08-03T13:41:26;31.20;67.80
56725;DHT22;42608;52.776;6.968;2022-08-03T13:43:52;31.20;67.20
56725;DHT22;42608;52.776;6.968;2022-08-03T13:46:17;31.10;66.40
56725;DHT22;42608;52.776;6.968;2022-08-03T13:48:44;31.00;66.40
56725;DHT22;42608;52.776;6.968;2022-08-03T13:51:10;31.10;66.80
56725;DHT22;42608;52.776;6.968;2022-08-03T13:53:35;31.30;67.00
56725;DHT22;42608;52.776;6.968;2022-08-03T13:56:01;31.40;66.10
56725;DHT22;42608;52.776;6.968;2022-08-03T13:58:26;31.50;65.30
56725;DHT22;42608;52.776;6.968;2022-08-03T14:00:52;31.50;64.70
56725;DHT22;42608;52.776;6.968;2022-08-03T14:03:17;31.70;64.60
56725;DHT22;42608;52.776;6.968;2022-08-03T14:05:43;31.80;65.00
56725;DHT22;42608;52.776;6.968;2022-08-03T14:08:09;31.90;64.40
56725;DHT22;42608;52.776;6.968;2022-08-03T14:10:35;31.90;63.50
56725;DHT22;42608;52.776;6.968;2022-08-03T14:13:02;31.90;63.20
56725;DHT22;42608;52.776;6.968;2022-08-03T14:15:27;31.90;63.20
56725;DHT22;42608;52.776;6.968;2022-08-03T14:17:53;31.90;62.80
56725;DHT22;42608;52.776;6.968;2022-08-03T14:20:18;31.90;61.90
56725;DHT22;42608;52.776;6.968;2022-08-03T14:22:44;31.70;61.40
56725;DHT22;42608;52.776;6.968;2022-08-03T14:25:09;31.80;62.10
56725;DHT22;42608;52.776;6.968;2022-08-03T14:27:35;31.80;62.40
56725;DHT22;42608;52.776;6.968;2022-08-03T14:30:01;31.90;62.60
56725;DHT22;42608;52.776;6.968;2022-08-03T14:32:27;31.90;62.60
56725;DHT22;42608;52.776;6.968;2022-08-03T14:34:52;32.00;62.20
56725;DHT22;42608;52.776;6.968;2022-08-03T14:37:18;31.90;61.50
56725;DHT22;42608;52.776;6.968;2022-08-03T14:39:43;31.80;60.80
56725;DHT22;42608;52.776;6.968;2022-08-03T14:42:11;31.60;60.30
56725;DHT22;42608;52.776;6.968;2022-08-03T14:44:36;31.50;60.50
56725;DHT22;42608;52.776;6.968;2022-08-03T14:47:02;31.60;62.00
56725;DHT22;42608;52.776;6.968;2022-08-03T14:49:27;31.80;62.20
56725;DHT22;42608;52.776;6.968;2022-08-03T14:51:53;31.70;60.40
56725;DHT22;42608;52.776;6.968;2022-08-03T14:54:18;31.80;61.50
56725;DHT22;42608;52.776;6.968;2022-08-03T14:56:44;31.90;62.00
56725;DHT22;42608;52.776;6.968;2022-08-03T14:59:09;32.00;61.80
56725;DHT22;42608;52.776;6.968;2022-08-03T15:01:35;32.00;61.40
56725;DHT22;42608;52.776;6.968;2022-08-03T15:04:01;32.00;61.00
56725;DHT22;42608;52.776;6.968;2022-08-03T15:06:26;31.90;60.60
56725;DHT22;42608;52.776;6.968;2022-08-03T15:08:52;31.70;61.20
56725;DHT22;42608;52.776;6.968;2022-08-03T15:11:18;31.70;61.90
56725;DHT22;42608;52.776;6.968;2022-08-03T15:13:44;31.60;62.60
56725;DHT22;42608;52.776;6.968;2022-08-03T15:16:09;31.50;62.80
56725;DHT22;42608;52.776;6.968;2022-08-03T15:18:35;31.50;63.30
56725;DHT22;42608;52.776;6.968;2022-08-03T15:21:00;31.50;63.90
56725;DHT22;42608;52.776;6.968;2022-08-03T15:23:26;31.60;63.60
56725;DHT22;42608;52.776;6.968;2022-08-03T15:25:52;31.60;64.20
56725;DHT22;42608;52.776;6.968;2022-08-03T15:28:17;31.70;63.80
56725;DHT22;42608;52.776;6.968;2022-08-03T15:30:43;31.70;64.00
56725;DHT22;42608;52.776;6.968;2022-08-03T15:33:08;31.50;63.10
56725;DHT22;42608;52.776;6.968;2022-08-03T15:35:34;31.40;63.90
56725;DHT22;42608;52.776;6.968;2022-08-03T15:37:59;31.40;63.50
56725;DHT22;42608;52.776;6.968;2022-08-03T15:40:25;31.30;63.00
56725;DHT22;42608;52.776;6.968;2022-08-03T15:42:51;31.30;63.30
56725;DHT22;42608;52.776;6.968;2022-08-03T15:45:16;31.30;63.20
56725;DHT22;42608;52.776;6.968;2022-08-03T15:47:42;31.20;63.60
56725;DHT22;42608;52.776;6.968;2022-08-03T15:50:07;31.20;64.00
56725;DHT22;42608;52.776;6.968;2022-08-03T15:52:33;31.20;64.00
56725;DHT22;42608;52.776;6.968;2022-08-03T15:54:58;31.10;63.60
56725;DHT22;42608;52.776;6.968;2022-08-03T15:57:24;31.10;64.40
56725;DHT22;42608;52.776;6.968;2022-08-03T15:59:50;30.90;64.50
56725;DHT22;42608;52.776;6.968;2022-08-03T16:02:16;30.90;64.80
56725;DHT22;42608;52.776;6.968;2022-08-03T16:04:41;30.80;64.80
56725;DHT22;42608;52.776;6.968;2022-08-03T16:07:07;30.70;63.90
56725;DHT22;42608;52.776;6.968;2022-08-03T16:09:33;30.60;63.30
56725;DHT22;42608;52.776;6.968;2022-08-03T16:11:58;30.60;62.80